Impacts TAF Board
For situational awareness. Not to be used for flight planning purposes.
IDs:

KLMT - Klamath Falls Intl, OR, US

Issued at 1126 UTC 07 Jul 2020
Updated at 1302 UTC 07 Jul 2020
Potential Impact None Slight Moderate High
Time1253Z 07/14Z 07/15Z 07/16Z 07/17Z 07/18Z 07/19Z 07/20Z 07/21Z 07/22Z 07/23Z 08/00Z 08/01Z 08/02Z>>
Type OBS PRVL PRVL PRVL PRVL PRVL PRVL PRVL PRVL PRVL PRVL PRVL PRVL PRVL
VIS 10 >6 >6 >6 >6 >6 >6 >6 >6 >6 >6 >6 >6 >6
CIG -- -- -- -- -- -- -- -- -- -- -- -- -- --
Cover CLR SKC SKC SKC SKC SKC SKC SKC SKC SKC SKC FEW FEW FEW
FltCat VFR VFR VFR VFR VFR VFR VFR VFR VFR VFR VFR VFR VFR VFR
WX -- -- -- -- -- -- -- -- -- -- -- -- -- --
WDir 80 300 300 300 300 300 300 300 300 300 300 320 320 320
WSpd 5 7 7 7 7 7 7 7 7 7 7 15 15 15
WGst -- -- -- -- -- -- -- -- -- -- -- 22 22 22
Raw TAF
KLMT 071126Z 0712/0812 30007KT P6SM SKC
  FM080000 32015G22KT P6SM FEW250
  FM080400 33004KT P6SM SKC


Raw METAR
KLMT 071253Z AUTO 08005KT 10SM CLR 02/00 A3011 RMK AO2 SLP174 T00220000
KLMT 071153Z AUTO 00000KT 10SM CLR 03/02 A3010 RMK AO2 SLP164 T00330017 10111 20028 53005
KLMT 071053Z AUTO 00000KT 10SM CLR 07/03 A3009 RMK AO2 SLP157 T00670033

METAR Board
Radar Display
Forecast Discussion
For situational awareness. Not to be used for flight planning purposes.